Route Details

Aircraft Information
Group: North America Fleet
Types: B738, B752, B762, B763
Route Data
Distance: 1005nm
Duration: 0h 00m
Origin METAR: KCVG 141956Z COR 24004KT 10SM TS BKN045CB BKN090 BKN150 31/21 A3009 RMK AO2 LTG DSNT W-NE TSB56 T03110211 TS NW NE MOV SE
Dest. METAR: CYHZ 142000Z 30008KT 280V360 15SM FEW040 FEW250 29/18 A2984 RMK CU2CI1 CI TR TCU TOP DIST N SLP105 DENSITY ALT 2300FT
Freight Data
(for Jul 14, 2024)
Load Factor:
29%
Manifested Cargo: 31,567lbs
Financial History
Total Freight: 113,438lbs
Average Load: 0lbs/flt
Fuel Used: 40,402lbs
Avg. Fuel Used: 0lbs/flt
Fuel Expense: $18,170
Avg. Fuel Expense: $0
Avg. Fuel Cost: $0/lbs
Total Gross Income: $316,492
Pilot Pay: $617
Total Expenses: $63,683
Total Revenue: $232,035
Average Revenue: $0

Capitol Logistics 182




KCVG
Cincinnati/Northern Kentucky International Airport
Covington, Kentucky
CYHZ
Halifax / Stanfield International Airport
Halifax,